createdAt,value
2019-05-26T00:00:59.706Z,9.50
2019-05-26T00:03:28.106Z,13.23
2019-05-26T00:05:56.509Z,11.87
2019-05-26T00:08:25.161Z,10.50
2019-05-26T00:10:53.649Z,10.90
2019-05-26T00:13:22.056Z,11.50
2019-05-26T00:15:50.504Z,10.57
2019-05-26T00:18:19.005Z,10.10
2019-05-26T00:20:47.401Z,10.13
2019-05-26T00:23:15.809Z,12.97
2019-05-26T00:25:44.286Z,11.33
2019-05-26T00:28:12.704Z,10.13
2019-05-26T00:30:41.177Z,10.23
2019-05-26T00:33:09.632Z,10.77
2019-05-26T00:35:38.167Z,10.57
2019-05-26T00:38:06.618Z,10.60
2019-05-26T00:40:35.066Z,12.87
2019-05-26T00:43:03.460Z,13.90
2019-05-26T00:45:32.039Z,14.50
2019-05-26T00:48:00.657Z,10.47
2019-05-26T00:50:29.070Z,10.13
2019-05-26T00:52:57.474Z,11.53
2019-05-26T00:55:26.053Z,11.20
2019-05-26T00:57:54.468Z,10.97
2019-05-26T01:00:42.598Z,10.37
2019-05-26T01:03:12.141Z,10.93
2019-05-26T01:05:40.817Z,10.57
2019-05-26T01:08:09.319Z,10.80
2019-05-26T01:10:37.991Z,10.80
2019-05-26T01:13:07.073Z,10.50
2019-05-26T01:15:35.652Z,12.50
2019-05-26T01:18:05.958Z,13.13
2019-05-26T01:20:34.368Z,13.07
2019-05-26T01:23:02.817Z,14.17
2019-05-26T01:25:31.215Z,10.57
2019-05-26T01:27:59.648Z,11.93
2019-05-26T01:30:36.070Z,12.23
2019-05-26T01:33:06.011Z,9.70
2019-05-26T01:35:36.825Z,10.33
2019-05-26T01:38:22.625Z,10.97
2019-05-26T01:40:39.522Z,9.83
2019-05-26T01:43:08.299Z,11.97
2019-05-26T01:45:36.989Z,12.40
2019-05-26T01:48:07.108Z,10.47
2019-05-26T01:50:35.579Z,10.93
2019-05-26T01:53:04.911Z,11.47
2019-05-26T01:55:33.571Z,11.80
2019-05-26T01:58:02.030Z,11.77
2019-05-26T02:00:30.427Z,11.50
2019-05-26T02:02:59.125Z,11.73
2019-05-26T02:05:27.526Z,11.80
2019-05-26T02:07:55.973Z,11.80
2019-05-26T02:10:24.365Z,10.80
2019-05-26T02:12:52.823Z,10.60
2019-05-26T02:15:23.526Z,12.78
2019-05-26T02:17:51.976Z,11.67
2019-05-26T02:20:20.541Z,10.78
2019-05-26T02:22:48.980Z,10.83
2019-05-26T02:25:19.518Z,10.67
2019-05-26T02:27:47.945Z,10.00
2019-05-26T02:30:17.777Z,11.22
2019-05-26T02:32:46.215Z,10.57
2019-05-26T02:35:15.142Z,10.20
2019-05-26T02:37:43.665Z,11.33
2019-05-26T02:40:12.405Z,11.20
2019-05-26T02:42:40.911Z,10.48
2019-05-26T02:45:11.712Z,10.30
2019-05-26T02:47:40.114Z,10.27
2019-05-26T02:50:09.398Z,11.23
2019-05-26T02:52:37.868Z,10.80
2019-05-26T02:55:08.014Z,11.10
2019-05-26T02:57:36.412Z,10.93
2019-05-26T03:00:07.949Z,10.53
2019-05-26T03:02:36.902Z,11.23
2019-05-26T03:05:08.947Z,10.47
2019-05-26T03:07:40.734Z,10.43
2019-05-26T03:10:09.612Z,9.98
2019-05-26T03:12:41.476Z,10.63
2019-05-26T03:15:11.010Z,9.53
2019-05-26T03:17:41.419Z,10.90
2019-05-26T03:20:12.303Z,11.40
2019-05-26T03:22:45.528Z,9.67
2019-05-26T03:25:14.745Z,15.95
2019-05-26T03:27:43.144Z,10.47
2019-05-26T03:30:12.939Z,11.70
2019-05-26T03:32:41.665Z,13.73
2019-05-26T03:35:11.007Z,10.53
2019-05-26T03:37:39.482Z,10.50
2019-05-26T03:40:09.559Z,10.83
2019-05-26T03:42:37.970Z,10.77
2019-05-26T03:45:09.486Z,10.90
2019-05-26T03:47:37.901Z,10.47
2019-05-26T03:50:08.286Z,11.00
2019-05-26T03:52:36.712Z,11.73
2019-05-26T03:55:08.215Z,12.53
2019-05-26T03:57:36.643Z,12.00
2019-05-26T04:00:07.654Z,12.67
2019-05-26T04:02:36.175Z,11.93
2019-05-26T04:05:06.613Z,12.17
2019-05-26T04:07:35.019Z,11.17
2019-05-26T04:10:07.649Z,13.93
2019-05-26T04:12:36.050Z,12.03
2019-05-26T04:15:06.691Z,13.30
2019-05-26T04:17:35.163Z,11.63
2019-05-26T04:20:04.701Z,11.80
2019-05-26T04:22:33.093Z,12.43
2019-05-26T04:25:01.874Z,12.73
2019-05-26T04:27:30.387Z,11.73
2019-05-26T04:29:58.902Z,11.47
2019-05-26T04:32:27.301Z,11.13
2019-05-26T04:34:55.762Z,11.20
2019-05-26T04:37:24.166Z,11.63
2019-05-26T04:39:52.606Z,11.80
2019-05-26T04:42:21.001Z,10.70
2019-05-26T04:44:49.450Z,12.47
2019-05-26T04:47:17.860Z,11.93
2019-05-26T04:49:46.263Z,11.00
2019-05-26T04:52:14.702Z,11.48
2019-05-26T04:54:43.101Z,10.90
2019-05-26T04:57:11.540Z,11.20
2019-05-26T04:59:39.942Z,11.17
2019-05-26T05:02:08.390Z,11.97
2019-05-26T05:04:36.798Z,12.40
2019-05-26T05:07:05.420Z,11.87
2019-05-26T05:09:33.907Z,11.30
2019-05-26T05:12:02.339Z,10.70
2019-05-26T05:14:30.738Z,11.87
2019-05-26T05:16:59.187Z,12.43
2019-05-26T05:19:27.583Z,11.70
2019-05-26T05:21:56.071Z,12.40
2019-05-26T05:24:24.515Z,11.43
2019-05-26T05:26:52.961Z,11.70
2019-05-26T05:29:21.369Z,14.10
2019-05-26T05:31:49.805Z,13.17
2019-05-26T05:34:18.223Z,12.97
2019-05-26T05:36:46.663Z,13.43
2019-05-26T05:39:15.065Z,12.90
2019-05-26T05:41:43.502Z,12.10
2019-05-26T05:44:11.900Z,11.90
2019-05-26T05:46:40.352Z,12.83
2019-05-26T05:49:08.750Z,12.73
2019-05-26T05:51:37.196Z,12.93
2019-05-26T05:54:06.529Z,12.00
2019-05-26T05:56:35.029Z,11.67
2019-05-26T05:59:03.498Z,13.03
2019-05-26T06:01:31.944Z,14.47
2019-05-26T06:04:00.353Z,13.47
2019-05-26T06:06:28.772Z,13.03
2019-05-26T06:08:57.187Z,13.80
2019-05-26T06:11:25.653Z,12.43
2019-05-26T06:13:54.061Z,13.10
2019-05-26T06:16:22.501Z,13.13
2019-05-26T06:18:50.906Z,13.47
2019-05-26T06:21:19.313Z,15.63
2019-05-26T06:23:47.760Z,12.77
2019-05-26T06:26:16.160Z,12.17
2019-05-26T06:28:44.601Z,12.23
2019-05-26T06:31:12.997Z,11.93
2019-05-26T06:33:41.442Z,13.40
2019-05-26T06:36:09.841Z,12.10
2019-05-26T06:38:38.280Z,12.07
2019-05-26T06:41:06.692Z,13.07
2019-05-26T06:43:35.633Z,11.80
2019-05-26T06:46:04.213Z,11.23
2019-05-26T06:48:32.669Z,11.60
2019-05-26T06:51:01.057Z,11.97
2019-05-26T06:53:30.053Z,11.93
2019-05-26T06:55:58.449Z,11.57
2019-05-26T06:58:26.966Z,10.73
2019-05-26T07:00:55.461Z,12.17
2019-05-26T07:03:23.991Z,11.50
2019-05-26T07:05:52.505Z,11.30
2019-05-26T07:08:20.987Z,11.88
2019-05-26T07:10:49.437Z,11.97
2019-05-26T07:13:17.915Z,11.70
2019-05-26T07:15:46.377Z,12.00
2019-05-26T07:18:14.875Z,10.58
2019-05-26T07:20:43.338Z,11.17
2019-05-26T07:23:11.929Z,11.13
2019-05-26T07:25:40.405Z,10.70
2019-05-26T07:28:08.911Z,11.43
2019-05-26T07:30:37.348Z,10.17
2019-05-26T07:33:05.864Z,10.17
2019-05-26T07:35:34.368Z,10.77
2019-05-26T07:38:02.818Z,10.37
2019-05-26T07:40:31.283Z,10.80
2019-05-26T07:42:59.685Z,10.57
2019-05-26T07:45:28.161Z,10.67
2019-05-26T07:47:56.605Z,11.13
2019-05-26T07:50:25.315Z,8.98
2019-05-26T07:52:55.530Z,9.03
2019-05-26T07:55:24.256Z,8.63
2019-05-26T07:57:52.890Z,9.50
2019-05-26T08:00:21.856Z,8.50
2019-05-26T08:02:50.758Z,7.83
2019-05-26T08:05:19.432Z,7.60
2019-05-26T08:07:48.091Z,8.13
2019-05-26T08:10:16.656Z,9.87
2019-05-26T08:12:45.036Z,8.10
2019-05-26T08:15:13.843Z,6.03
2019-05-26T08:17:42.249Z,6.87
2019-05-26T08:20:11.696Z,6.20
2019-05-26T08:22:40.192Z,6.10
2019-05-26T08:25:08.769Z,5.93
2019-05-26T08:27:37.184Z,7.03
2019-05-26T08:30:08.017Z,5.27
2019-05-26T08:32:36.567Z,5.53
2019-05-26T08:35:06.777Z,5.47
2019-05-26T08:37:35.182Z,5.23
2019-05-26T08:40:20.582Z,5.30
2019-05-26T08:42:50.424Z,4.90
2019-05-26T08:45:22.753Z,4.47
2019-05-26T08:47:52.003Z,5.03
2019-05-26T08:50:21.737Z,5.03
2019-05-26T08:52:50.201Z,5.40
2019-05-26T08:55:18.714Z,4.80
2019-05-26T08:57:47.165Z,4.97
2019-05-26T09:00:17.507Z,3.40
2019-05-26T09:02:45.957Z,3.40
2019-05-26T09:05:15.002Z,3.17
2019-05-26T09:07:43.397Z,2.40
2019-05-26T09:10:12.373Z,2.27
2019-05-26T09:12:40.772Z,4.60
2019-05-26T09:15:09.652Z,2.83
2019-05-26T09:17:38.055Z,2.43
2019-05-26T09:20:11.568Z,4.37
2019-05-26T09:22:40.465Z,3.20
2019-05-26T09:25:09.421Z,3.00
2019-05-26T09:27:37.807Z,2.53
2019-05-26T09:30:08.170Z,2.70
2019-05-26T09:32:36.855Z,3.97
2019-05-26T09:35:08.679Z,2.60
2019-05-26T09:37:37.085Z,2.57
2019-05-26T09:40:09.545Z,2.30
2019-05-26T09:42:37.978Z,2.93
2019-05-26T09:45:07.632Z,2.00
2019-05-26T09:47:36.102Z,1.87
2019-05-26T09:50:06.499Z,2.40
2019-05-26T09:52:34.957Z,1.80
2019-05-26T09:55:04.923Z,4.30
2019-05-26T09:57:33.411Z,1.97
2019-05-26T10:00:01.867Z,2.33
2019-05-26T10:02:30.409Z,2.00
2019-05-26T10:04:58.923Z,1.70
2019-05-26T10:07:27.369Z,2.03
2019-05-26T10:09:55.885Z,1.90
2019-05-26T10:12:24.383Z,3.07
2019-05-26T10:14:52.793Z,2.10
2019-05-26T10:17:23.178Z,1.77
2019-05-26T10:19:51.430Z,1.70
2019-05-26T10:22:19.863Z,1.42
2019-05-26T10:24:48.318Z,1.57
2019-05-26T10:27:17.089Z,2.20
2019-05-26T10:29:45.560Z,3.43
2019-05-26T10:32:14.290Z,3.33
2019-05-26T10:34:42.729Z,1.53
2019-05-26T10:37:11.234Z,1.53
2019-05-26T10:39:39.658Z,1.83
2019-05-26T10:42:09.160Z,1.77
2019-05-26T10:44:37.712Z,1.57
2019-05-26T10:47:06.201Z,1.60
2019-05-26T10:49:35.484Z,3.93
2019-05-26T10:52:04.142Z,1.53
2019-05-26T10:54:32.595Z,1.70
2019-05-26T10:57:01.137Z,1.67
2019-05-26T10:59:31.149Z,1.73
2019-05-26T11:01:59.850Z,1.33
2019-05-26T11:04:28.379Z,2.80
2019-05-26T11:06:56.857Z,1.20
2019-05-26T11:09:25.349Z,1.53
2019-05-26T11:11:54.088Z,1.50
2019-05-26T11:14:22.627Z,1.60
2019-05-26T11:16:51.288Z,1.60
2019-05-26T11:19:19.956Z,4.40
2019-05-26T11:21:48.481Z,2.10
2019-05-26T11:24:16.932Z,1.73
2019-05-26T11:26:45.450Z,3.97
2019-05-26T11:29:13.902Z,2.17
2019-05-26T11:31:42.340Z,2.60
2019-05-26T11:34:10.832Z,1.60
2019-05-26T11:36:39.325Z,3.13
2019-05-26T11:39:08.190Z,1.50
2019-05-26T11:41:36.623Z,2.63
2019-05-26T11:44:17.490Z,2.00
2019-05-26T11:46:36.161Z,4.07
2019-05-26T11:49:04.921Z,1.83
2019-05-26T11:51:33.361Z,1.60
2019-05-26T11:54:06.262Z,1.60
2019-05-26T11:56:34.711Z,2.87
2019-05-26T11:59:03.111Z,1.70
2019-05-26T12:01:31.510Z,1.83
2019-05-26T12:04:00.306Z,1.60
2019-05-26T12:06:28.694Z,1.80
2019-05-26T12:08:57.138Z,1.87
2019-05-26T12:11:25.532Z,2.87
2019-05-26T12:13:53.985Z,2.10
2019-05-26T12:16:22.381Z,2.33
2019-05-26T12:18:50.816Z,2.87
2019-05-26T12:21:19.218Z,2.00
2019-05-26T12:23:47.655Z,1.80
2019-05-26T12:26:16.053Z,2.00
2019-05-26T12:28:44.489Z,2.53
2019-05-26T12:31:12.889Z,1.63
2019-05-26T12:33:41.385Z,1.67
2019-05-26T12:36:09.951Z,1.80
2019-05-26T12:38:40.038Z,2.07
2019-05-26T12:41:08.433Z,2.20
2019-05-26T12:43:36.878Z,3.13
2019-05-26T12:46:05.930Z,2.73
2019-05-26T12:48:34.334Z,2.47
2019-05-26T12:51:02.784Z,1.23
2019-05-26T12:53:31.214Z,1.67
2019-05-26T12:55:59.656Z,1.47
2019-05-26T12:58:28.093Z,2.73
2019-05-26T13:00:56.509Z,1.60
2019-05-26T13:03:24.926Z,1.37
2019-05-26T13:05:53.327Z,2.03
2019-05-26T13:08:21.771Z,1.70
2019-05-26T13:10:50.200Z,1.63
2019-05-26T13:13:19.121Z,1.33
2019-05-26T13:15:47.527Z,1.57
2019-05-26T13:18:15.921Z,2.17
2019-05-26T13:20:44.359Z,1.57
2019-05-26T13:23:12.753Z,1.57
2019-05-26T13:25:41.193Z,1.60
2019-05-26T13:28:09.621Z,1.80
2019-05-26T13:30:38.082Z,1.97
2019-05-26T13:33:06.540Z,1.97
2019-05-26T13:35:34.941Z,3.30
2019-05-26T13:38:03.341Z,1.57
2019-05-26T13:40:31.826Z,3.10
2019-05-26T13:43:00.225Z,3.20
2019-05-26T13:45:28.665Z,3.33
2019-05-26T13:47:57.084Z,3.70
2019-05-26T13:50:25.829Z,1.50
2019-05-26T13:52:54.258Z,1.77
2019-05-26T13:55:22.825Z,3.57
2019-05-26T13:57:51.237Z,2.43
2019-05-26T14:00:20.209Z,1.77
2019-05-26T14:02:48.623Z,2.40
2019-05-26T14:05:17.556Z,2.17
2019-05-26T14:07:45.996Z,1.30
2019-05-26T14:10:16.110Z,1.50
2019-05-26T14:12:44.806Z,2.87
2019-05-26T14:15:14.860Z,1.30
2019-05-26T14:17:43.826Z,1.93
2019-05-26T14:20:12.857Z,2.23
2019-05-26T14:22:41.294Z,2.07
2019-05-26T14:25:10.081Z,5.73
2019-05-26T14:27:38.489Z,4.37
2019-05-26T14:30:08.633Z,3.00
2019-05-26T14:32:37.075Z,4.00
2019-05-26T14:35:07.397Z,2.90
2019-05-26T14:37:35.812Z,2.33
2019-05-26T14:40:07.005Z,1.67
2019-05-26T14:42:35.482Z,1.50
2019-05-26T14:45:06.336Z,2.92
2019-05-26T14:47:34.898Z,2.83
2019-05-26T14:50:05.471Z,3.47
2019-05-26T14:52:33.916Z,3.10
2019-05-26T14:55:02.491Z,3.13
2019-05-26T14:57:31.160Z,3.03
2019-05-26T14:59:59.687Z,2.17
2019-05-26T15:02:28.125Z,2.10
2019-05-26T15:04:56.521Z,2.47
2019-05-26T15:07:25.008Z,4.35
2019-05-26T15:09:53.400Z,3.73
2019-05-26T15:12:21.841Z,3.72
2019-05-26T15:14:50.238Z,3.93
2019-05-26T15:17:18.633Z,1.77
2019-05-26T15:19:47.070Z,3.63
2019-05-26T15:22:15.598Z,2.13
2019-05-26T15:24:43.989Z,2.20
2019-05-26T15:27:12.389Z,3.87
2019-05-26T15:29:40.875Z,2.13
2019-05-26T15:32:09.255Z,2.10
2019-05-26T15:34:37.658Z,2.10
2019-05-26T15:37:06.113Z,2.13
2019-05-26T15:39:34.514Z,1.90
2019-05-26T15:42:02.955Z,5.30
2019-05-26T15:44:31.446Z,3.03
2019-05-26T15:46:59.844Z,7.67
2019-05-26T15:49:28.274Z,9.73
2019-05-26T15:51:56.751Z,2.33
2019-05-26T15:54:25.189Z,2.10
2019-05-26T15:56:53.581Z,4.47
2019-05-26T15:59:22.030Z,2.90
2019-05-26T16:01:50.478Z,2.07
2019-05-26T16:04:18.918Z,3.93
2019-05-26T16:06:47.444Z,2.43
2019-05-26T16:09:15.845Z,2.17
2019-05-26T16:11:44.295Z,2.10
2019-05-26T16:14:12.699Z,2.00
2019-05-26T16:16:42.175Z,4.47
2019-05-26T16:19:10.727Z,3.53
2019-05-26T16:21:39.143Z,2.77
2019-05-26T16:24:07.774Z,2.90
2019-05-26T16:26:36.200Z,2.60
2019-05-26T16:29:05.094Z,3.40
2019-05-26T16:31:33.505Z,2.67
2019-05-26T16:34:01.946Z,2.17
2019-05-26T16:36:30.341Z,4.27
2019-05-26T16:38:58.775Z,3.53
2019-05-26T16:41:27.213Z,3.07
2019-05-26T16:43:55.610Z,3.67
2019-05-26T16:46:24.017Z,2.70
2019-05-26T16:48:54.782Z,2.57
2019-05-26T16:51:22.609Z,3.70
2019-05-26T16:53:51.067Z,10.00
2019-05-26T16:56:19.514Z,2.37
2019-05-26T16:58:47.949Z,2.37
2019-05-26T17:01:16.349Z,2.37
2019-05-26T17:03:44.755Z,2.10
2019-05-26T17:06:13.220Z,2.50
2019-05-26T17:08:41.613Z,2.00
2019-05-26T17:11:10.015Z,3.10
2019-05-26T17:13:38.501Z,2.47
2019-05-26T17:16:06.902Z,2.40
2019-05-26T17:18:35.302Z,2.67
2019-05-26T17:21:04.920Z,3.53
2019-05-26T17:23:33.407Z,2.20
2019-05-26T17:26:01.893Z,2.43
2019-05-26T17:28:30.325Z,3.07
2019-05-26T17:30:58.720Z,2.30
2019-05-26T17:33:27.123Z,2.60
2019-05-26T17:35:55.643Z,2.30
2019-05-26T17:38:24.653Z,2.60
2019-05-26T17:40:53.225Z,2.80
2019-05-26T17:43:21.635Z,2.63
2019-05-26T17:45:50.082Z,2.57
2019-05-26T17:48:18.481Z,4.70
2019-05-26T17:50:46.883Z,2.83
2019-05-26T17:53:16.248Z,2.47
2019-05-26T17:55:44.662Z,2.50
2019-05-26T17:58:13.101Z,2.80
2019-05-26T18:00:41.537Z,2.87
2019-05-26T18:03:09.975Z,4.27
2019-05-26T18:05:38.373Z,3.80
2019-05-26T18:08:06.809Z,3.07
2019-05-26T18:10:35.201Z,3.30
2019-05-26T18:13:03.597Z,2.60
2019-05-26T18:15:32.061Z,3.40
2019-05-26T18:18:00.469Z,2.30
2019-05-26T18:20:28.929Z,3.03
2019-05-26T18:22:57.398Z,2.50
2019-05-26T18:25:25.787Z,2.30
2019-05-26T18:27:54.193Z,3.67
2019-05-26T18:30:23.274Z,3.83
2019-05-26T18:32:51.686Z,2.30
2019-05-26T18:35:20.073Z,2.83
2019-05-26T18:37:51.977Z,2.30
2019-05-26T18:40:19.608Z,2.10
2019-05-26T18:42:48.069Z,2.60
2019-05-26T18:45:17.525Z,2.20
2019-05-26T18:48:01.478Z,2.57
2019-05-26T18:50:16.181Z,2.37
2019-05-26T18:52:44.594Z,2.20
2019-05-26T18:55:13.093Z,1.93
2019-05-26T18:57:41.561Z,2.30
2019-05-26T19:00:11.678Z,2.43
2019-05-26T19:02:40.211Z,2.83
2019-05-26T19:05:08.829Z,2.27
2019-05-26T19:07:37.279Z,2.50
2019-05-26T19:10:07.309Z,2.33
2019-05-26T19:12:35.790Z,4.10
2019-05-26T19:15:06.929Z,4.37
2019-05-26T19:17:35.407Z,3.00
2019-05-26T19:20:15.924Z,2.40
2019-05-26T19:22:39.276Z,2.40
2019-05-26T19:25:09.077Z,2.30
2019-05-26T19:27:37.602Z,2.43
2019-05-26T19:30:08.461Z,2.17
2019-05-26T19:32:36.944Z,4.27
2019-05-26T19:35:07.470Z,2.40
2019-05-26T19:37:35.974Z,3.93
2019-05-26T19:40:06.833Z,3.47
2019-05-26T19:42:35.297Z,2.90
2019-05-26T19:45:07.083Z,2.92
2019-05-26T19:47:35.510Z,3.90
2019-05-26T19:50:07.833Z,2.90
2019-05-26T19:52:36.257Z,4.27
2019-05-26T19:55:07.706Z,2.67
2019-05-26T19:57:36.234Z,2.63
2019-05-26T20:00:15.937Z,3.57
2019-05-26T20:02:44.364Z,3.60
2019-05-26T20:05:12.930Z,5.67
2019-05-26T20:07:41.368Z,7.47
2019-05-26T20:10:10.156Z,5.40
2019-05-26T20:12:38.605Z,4.30
2019-05-26T20:15:07.733Z,4.03
2019-05-26T20:17:36.182Z,5.47
2019-05-26T20:20:09.354Z,3.93
2019-05-26T20:22:37.864Z,3.50
2019-05-26T20:25:08.105Z,3.17
2019-05-26T20:27:36.614Z,3.57
2019-05-26T20:30:11.534Z,4.60
2019-05-26T20:32:39.974Z,2.93
2019-05-26T20:35:08.805Z,2.67
2019-05-26T20:37:37.245Z,3.20
2019-05-26T20:40:08.209Z,2.80
2019-05-26T20:42:36.624Z,2.53
2019-05-26T20:45:08.451Z,4.23
2019-05-26T20:47:36.887Z,4.20
2019-05-26T20:50:07.220Z,3.03
2019-05-26T20:52:35.614Z,3.80
2019-05-26T20:55:07.323Z,2.37
2019-05-26T20:57:35.759Z,2.90
2019-05-26T21:00:10.215Z,4.37
2019-05-26T21:02:39.246Z,2.80
2019-05-26T21:05:09.389Z,4.13
2019-05-26T21:07:37.821Z,3.87
2019-05-26T21:10:06.925Z,2.90
2019-05-26T21:12:35.393Z,2.43
2019-05-26T21:15:06.733Z,2.62
2019-05-26T21:17:35.166Z,3.23
2019-05-26T21:20:08.097Z,2.90
2019-05-26T21:22:36.534Z,2.60
2019-05-26T21:25:06.682Z,2.47
2019-05-26T21:27:35.115Z,2.87
2019-05-26T21:30:08.500Z,2.90
2019-05-26T21:32:36.926Z,2.77
2019-05-26T21:35:07.238Z,3.80
2019-05-26T21:37:35.719Z,4.13
2019-05-26T21:40:06.651Z,2.70
2019-05-26T21:42:35.079Z,2.70
2019-05-26T21:45:05.918Z,2.50
2019-05-26T21:47:34.373Z,4.60
2019-05-26T21:50:02.777Z,4.20
2019-05-26T21:52:31.215Z,4.83
2019-05-26T21:54:59.610Z,6.43
2019-05-26T21:57:28.016Z,3.60
2019-05-26T21:59:56.437Z,4.23
2019-05-26T22:02:24.854Z,4.37
2019-05-26T22:04:53.277Z,4.30
2019-05-26T22:07:21.682Z,4.50
2019-05-26T22:09:50.110Z,4.60
2019-05-26T22:12:18.517Z,4.60
2019-05-26T22:14:46.942Z,4.90
2019-05-26T22:17:15.337Z,5.50
2019-05-26T22:19:43.778Z,4.97
2019-05-26T22:22:12.182Z,4.80
2019-05-26T22:24:40.609Z,5.03
2019-05-26T22:27:09.017Z,4.60
2019-05-26T22:29:37.458Z,7.57
2019-05-26T22:32:05.903Z,6.17
2019-05-26T22:34:34.333Z,4.67
2019-05-26T22:37:02.741Z,6.73
2019-05-26T22:39:31.165Z,4.83
2019-05-26T22:41:59.627Z,5.43
2019-05-26T22:44:28.057Z,6.13
2019-05-26T22:46:56.457Z,6.70
2019-05-26T22:49:24.904Z,5.00
2019-05-26T22:51:53.306Z,5.27
2019-05-26T22:54:22.705Z,5.20
2019-05-26T22:56:51.112Z,8.40
2019-05-26T22:59:19.542Z,5.97
2019-05-26T23:01:48.038Z,5.87
2019-05-26T23:04:16.467Z,5.67
2019-05-26T23:06:44.878Z,5.47
2019-05-26T23:09:13.317Z,5.17
2019-05-26T23:11:41.709Z,6.10
2019-05-26T23:14:10.146Z,5.12
2019-05-26T23:16:38.547Z,5.87
2019-05-26T23:19:18.688Z,5.58
2019-05-26T23:21:37.124Z,5.23
2019-05-26T23:24:05.982Z,6.53
2019-05-26T23:26:34.376Z,5.43
2019-05-26T23:29:02.814Z,5.07
2019-05-26T23:31:31.205Z,6.08
2019-05-26T23:33:59.610Z,5.10
2019-05-26T23:36:28.039Z,5.63
2019-05-26T23:38:56.438Z,4.57
2019-05-26T23:41:24.881Z,5.78
2019-05-26T23:43:53.293Z,5.13
2019-05-26T23:46:21.737Z,5.20
2019-05-26T23:48:50.133Z,5.03
2019-05-26T23:51:18.530Z,5.70
2019-05-26T23:53:46.989Z,6.50
2019-05-26T23:56:15.542Z,5.43
2019-05-26T23:58:43.938Z,4.97
